Time;durP1;ratioP1;P1;durP2;ratioP2;P2;SDS_P1;SDS_P2;PMS_P1;PMS_P2;Temp;Humidity;BMP_temperature;BMP_pressure;BME280_temperature;BME280_humidity;BME280_pressure;Samples;Min_cycle;Max_cycle;Signal;HPM_P1;HPM_P2
2021/01/14 00:01:17;;;;;;;0.00;0.00;;;2.30;99.90;;;;;;5004546;28;20031;-90
2021/01/14 00:03:43;;;;;;;0.00;0.00;;;2.30;99.90;;;;;;5005182;28;20039;-88
2021/01/14 00:06:12;;;;;;;0.00;0.00;;;2.30;99.90;;;;;;5007145;28;20031;-89
2021/01/14 00:08:39;;;;;;;0.00;0.00;;;2.20;99.90;;;;;;5005007;28;20034;-89
2021/01/14 00:11:04;;;;;;;0.00;0.00;;;2.30;99.90;;;;;;5005213;28;20027;-91
2021/01/14 00:13:30;;;;;;;0.00;0.00;;;2.20;99.90;;;;;;5004125;28;20038;-90
2021/01/14 00:15:56;;;;;;;0.00;0.00;;;2.20;99.90;;;;;;5005588;28;20094;-88
2021/01/14 00:18:21;;;;;;;0.03;0.03;;;2.20;99.90;;;;;;5006426;28;20042;-89
2021/01/14 00:20:47;;;;;;;0.00;0.00;;;2.20;99.90;;;;;;5004590;28;20050;-88
2021/01/14 00:23:13;;;;;;;0.00;0.00;;;2.20;99.90;;;;;;5005884;28;20038;-89
2021/01/14 00:25:39;;;;;;;0.00;0.00;;;2.10;99.90;;;;;;5005473;28;20026;-89
2021/01/14 00:28:04;;;;;;;0.00;0.00;;;2.10;99.90;;;;;;5006324;28;20049;-88
2021/01/14 00:30:31;;;;;;;0.00;0.00;;;2.10;99.90;;;;;;5005597;28;20054;-88
2021/01/14 00:33:00;;;;;;;0.00;0.00;;;2.10;99.90;;;;;;5004513;28;20039;-89
2021/01/14 00:35:27;;;;;;;0.00;0.00;;;2.10;99.90;;;;;;5004550;28;20085;-90
2021/01/14 00:37:53;;;;;;;0.00;0.00;;;2.10;99.90;;;;;;5004501;28;20039;-88
2021/01/14 00:40:31;;;;;;;0.00;0.00;;;2.10;99.90;;;;;;5005146;28;20039;-90
2021/01/14 00:43:03;;;;;;;0.00;0.00;;;2.00;99.90;;;;;;5004431;28;20034;-89
2021/01/14 00:45:52;;;;;;;0.00;0.00;;;2.00;99.90;;;;;;5004164;28;20059;-90
2021/01/14 00:48:18;;;;;;;0.00;0.00;;;2.00;99.90;;;;;;4951706;28;20044;-89
2021/01/14 00:50:43;;;;;;;0.00;0.00;;;2.00;99.90;;;;;;4933758;29;20063;-90
2021/01/14 00:53:09;;;;;;;0.00;0.00;;;1.90;99.90;;;;;;4949017;29;20055;-91
2021/01/14 00:55:35;;;;;;;0.00;0.00;;;1.90;99.90;;;;;;4933258;29;20067;-90
2021/01/14 00:58:01;;;;;;;0.00;0.00;;;1.80;99.90;;;;;;4933828;29;20107;-91
2021/01/14 01:00:27;;;;;;;0.00;0.00;;;1.80;99.90;;;;;;4933059;29;20067;-90
2021/01/14 01:03:01;;;;;;;0.00;0.00;;;1.80;99.90;;;;;;4931497;29;20056;-88
2021/01/14 01:05:27;;;;;;;0.00;0.00;;;1.80;99.90;;;;;;4931449;29;20108;-90
2021/01/14 01:07:59;;;;;;;0.00;0.00;;;1.80;99.90;;;;;;4932946;29;20075;-88
2021/01/14 01:10:26;;;;;;;0.00;0.00;;;1.80;99.90;;;;;;4933529;29;20035;-88
2021/01/14 01:12:53;;;;;;;0.00;0.00;;;1.80;99.90;;;;;;4933174;29;20040;-94
2021/01/14 01:15:20;;;;;;;0.00;0.00;;;1.80;99.90;;;;;;4932138;29;20059;-89
2021/01/14 01:17:45;;;;;;;0.00;0.00;;;1.70;99.90;;;;;;4932862;29;20083;-89
2021/01/14 01:20:12;;;;;;;0.00;0.00;;;1.70;99.90;;;;;;4933400;29;20042;-89
2021/01/14 01:22:37;;;;;;;0.00;0.00;;;1.70;99.90;;;;;;4933695;29;20036;-86
2021/01/14 01:25:05;;;;;;;0.00;0.00;;;1.60;99.90;;;;;;4949813;28;20119;-88
2021/01/14 01:27:30;;;;;;;0.00;0.00;;;1.60;99.90;;;;;;4988630;28;20030;-88
2021/01/14 01:29:56;;;;;;;0.00;0.00;;;1.50;99.90;;;;;;4988817;28;20038;-88
2021/01/14 01:32:22;;;;;;;0.00;0.00;;;1.40;99.90;;;;;;4989079;28;20034;-89
2021/01/14 01:34:48;;;;;;;0.00;0.00;;;1.40;99.90;;;;;;4989752;28;20066;-88
2021/01/14 01:37:14;;;;;;;0.00;0.00;;;1.30;99.90;;;;;;4989690;28;20125;-89
2021/01/14 01:39:39;;;;;;;0.00;0.00;;;1.20;99.90;;;;;;4993401;28;20040;-88
2021/01/14 01:42:06;;;;;;;0.00;0.00;;;1.20;99.90;;;;;;4992834;28;20034;-90
2021/01/14 01:44:32;;;;;;;0.00;0.00;;;1.10;99.90;;;;;;4992655;28;20094;-89
2021/01/14 01:47:05;;;;;;;0.00;0.00;;;1.00;99.90;;;;;;5008583;23;20050;-87
2021/01/14 01:49:33;;;;;;;0.00;0.00;;;0.90;99.90;;;;;;5012437;28;20466;-89
2021/01/14 01:52:01;;;;;;;0.00;0.00;;;0.90;99.90;;;;;;5044848;28;20043;-87
2021/01/14 01:54:26;;;;;;;0.00;0.00;;;0.90;99.90;;;;;;5013108;28;20039;-87
2021/01/14 01:56:52;;;;;;;0.00;0.00;;;0.80;99.90;;;;;;5045622;28;20048;-88
2021/01/14 01:59:19;;;;;;;0.00;0.00;;;0.80;99.90;;;;;;5013060;28;20074;-87
2021/01/14 02:01:46;;;;;;;0.00;0.00;;;0.80;99.90;;;;;;5028782;28;20037;-87
2021/01/14 02:04:13;;;;;;;0.00;0.00;;;0.80;99.90;;;;;;5029246;28;20026;-87
2021/01/14 02:07:06;;;;;;;0.00;0.00;;;0.90;99.90;;;;;;5045168;28;20026;-87
2021/01/14 02:09:35;;;;;;;0.00;0.00;;;0.90;99.90;;;;;;5044830;28;20042;-87
2021/01/14 02:12:11;;;;;;;0.00;0.00;;;0.90;99.90;;;;;;1617816;23;20320;-86
2021/01/14 02:14:40;;;;;;;0.00;0.00;;;0.80;99.90;;;;;;4990724;28;20055;-87
2021/01/14 02:17:06;;;;;;;46.10;2.92;;;0.80;99.90;;;;;;4977103;28;20038;-87
2021/01/14 02:19:45;;;;;;;0.00;0.00;;;0.80;99.90;;;;;;4992895;28;20043;-87
2021/01/14 02:22:20;;;;;;;0.00;0.00;;;0.80;99.90;;;;;;4976204;28;20038;-87
2021/01/14 02:24:48;;;;;;;0.00;0.00;;;0.80;99.90;;;;;;4991415;28;20043;-87
2021/01/14 02:27:15;;;;;;;0.00;0.00;;;0.80;99.90;;;;;;4993083;28;20026;-87
2021/01/14 02:29:44;;;;;;;0.00;0.00;;;0.80;99.90;;;;;;4977422;28;20062;-87
2021/01/14 02:32:17;;;;;;;0.00;0.00;;;0.80;99.90;;;;;;4992958;28;20035;-87
2021/01/14 02:34:43;;;;;;;0.00;0.00;;;0.80;99.90;;;;;;4992022;28;20038;-87
2021/01/14 02:37:11;;;;;;;0.00;0.00;;;0.80;99.90;;;;;;4992008;28;20026;-88
2021/01/14 02:39:37;;;;;;;0.00;0.00;;;0.80;99.90;;;;;;4992569;28;20483;-87
2021/01/14 02:42:03;;;;;;;0.00;0.00;;;0.80;99.90;;;;;;4976591;28;20490;-87
2021/01/14 02:44:30;;;;;;;0.00;0.00;;;0.80;99.90;;;;;;4992017;28;20074;-87
2021/01/14 02:47:00;;;;;;;0.00;0.00;;;0.80;99.90;;;;;;5008100;28;20033;-88
2021/01/14 02:49:27;;;;;;;0.00;0.00;;;0.70;99.90;;;;;;4991755;28;20034;-88
2021/01/14 02:52:02;;;;;;;0.00;0.00;;;0.70;99.90;;;;;;4992125;28;20096;-87
2021/01/14 02:54:30;;;;;;;0.00;0.00;;;0.70;99.90;;;;;;4992378;28;20031;-88
2021/01/14 02:56:56;;;;;;;0.00;0.00;;;0.70;99.90;;;;;;4959842;28;20058;-88
2021/01/14 02:59:22;;;;;;;0.00;0.00;;;0.70;99.90;;;;;;4991979;28;20073;-88
2021/01/14 03:01:49;;;;;;;0.00;0.00;;;0.70;99.90;;;;;;4976140;28;20049;-88
2021/01/14 03:04:14;;;;;;;0.00;0.00;;;0.70;99.90;;;;;;4992350;28;20039;-88
2021/01/14 03:06:41;;;;;;;0.00;0.00;;;0.60;99.90;;;;;;4992131;28;20058;-88
2021/01/14 03:09:08;;;;;;;0.00;0.00;;;0.70;99.90;;;;;;4992175;28;20041;-88
2021/01/14 03:11:35;;;;;;;0.00;0.00;;;0.70;99.90;;;;;;4992298;28;20062;-89
2021/01/14 03:14:01;;;;;;;0.00;0.00;;;0.60;99.90;;;;;;4992266;28;20054;-89
2021/01/14 03:16:29;;;;;;;0.00;0.00;;;0.60;99.90;;;;;;4992610;28;20035;-89
2021/01/14 03:18:55;;;;;;;0.00;0.00;;;0.60;99.90;;;;;;4991965;28;20046;-88
2021/01/14 03:21:24;;;;;;;0.00;0.00;;;0.60;99.90;;;;;;4991756;28;20038;-89
2021/01/14 03:23:52;;;;;;;0.00;0.00;;;0.60;99.90;;;;;;4991625;28;20061;-87
2021/01/14 03:26:19;;;;;;;0.00;0.00;;;0.60;99.90;;;;;;4959239;28;20122;-88
2021/01/14 03:28:46;;;;;;;0.00;0.00;;;0.50;99.90;;;;;;4974771;28;20035;-88
2021/01/14 03:31:14;;;;;;;0.00;0.00;;;0.50;99.90;;;;;;4991009;28;20055;-88
2021/01/14 03:33:40;;;;;;;0.00;0.00;;;0.50;99.90;;;;;;4991133;28;20026;-88
2021/01/14 03:36:08;;;;;;;0.00;0.00;;;0.50;99.90;;;;;;4991377;28;20062;-88
2021/01/14 03:38:36;;;;;;;0.00;0.00;;;0.40;99.90;;;;;;4990767;28;20047;-88
2021/01/14 03:41:08;;;;;;;0.00;0.00;;;0.40;99.90;;;;;;4990961;28;20050;-88
2021/01/14 03:43:36;;;;;;;0.00;0.00;;;0.40;99.90;;;;;;4991606;28;20105;-88
2021/01/14 03:46:20;;;;;;;0.00;0.00;;;0.40;99.90;;;;;;4990506;28;20080;-88
2021/01/14 03:48:47;;;;;;;0.00;0.00;;;0.40;99.90;;;;;;4971760;28;20050;-88
2021/01/14 03:51:18;;;;;;;0.00;0.00;;;0.40;99.90;;;;;;4990548;28;20039;-88
2021/01/14 03:53:45;;;;;;;0.00;0.00;;;0.40;99.90;;;;;;4990914;28;20041;-88
2021/01/14 03:56:11;;;;;;;0.00;0.00;;;0.30;99.90;;;;;;4990097;28;20050;-89
2021/01/14 03:58:38;;;;;;;0.00;0.00;;;0.30;99.90;;;;;;5008206;23;20059;-88
2021/01/14 04:01:04;;;;;;;0.00;0.00;;;0.30;99.90;;;;;;4977288;23;20078;-88
2021/01/14 04:03:32;;;;;;;0.00;0.00;;;0.30;99.90;;;;;;4955921;29;20044;-88
2021/01/14 04:05:59;;;;;;;0.00;0.00;;;0.30;99.90;;;;;;4956397;29;20027;-88
2021/01/14 04:08:25;;;;;;;0.00;0.00;;;0.30;99.90;;;;;;4955703;29;20035;-88
2021/01/14 04:10:50;;;;;;;0.00;0.00;;;0.30;99.90;;;;;;4955959;29;20041;-89
2021/01/14 04:13:16;;;;;;;0.00;0.00;;;0.40;99.90;;;;;;4972821;28;20031;-88
2021/01/14 04:15:42;;;;;;;0.00;0.00;;;0.40;99.90;;;;;;4955510;29;20035;-88
2021/01/14 04:18:09;;;;;;;0.00;0.00;;;0.40;99.90;;;;;;4955884;29;20043;-89
2021/01/14 04:20:38;;;;;;;0.00;0.00;;;0.40;99.90;;;;;;4955683;29;20204;-88
2021/01/14 04:23:04;;;;;;;0.00;0.00;;;0.30;99.90;;;;;;4955294;29;20133;-89
2021/01/14 04:25:33;;;;;;;0.00;0.00;;;0.30;99.90;;;;;;4940215;29;20055;-88
2021/01/14 04:27:59;;;;;;;0.00;0.00;;;0.30;99.90;;;;;;4990259;23;20043;-88
2021/01/14 04:30:28;;;;;;;0.00;0.00;;;0.30;99.90;;;;;;4960912;28;20390;-88
2021/01/14 04:33:13;;;;;;;0.00;0.00;;;0.30;99.90;;;;;;4959321;28;20041;-89
2021/01/14 04:35:45;;;;;;;0.00;0.00;;;0.20;99.90;;;;;;4975222;28;20042;-88
2021/01/14 04:38:11;;;;;;;0.00;0.00;;;0.20;99.90;;;;;;4990677;28;20185;-89
2021/01/14 04:40:40;;;;;;;0.00;0.00;;;0.10;99.90;;;;;;4991384;28;20030;-89
2021/01/14 04:43:10;;;;;;;0.00;0.00;;;0.10;99.90;;;;;;4975338;28;20035;-87
2021/01/14 04:48:02;;;;;;;0.00;0.00;;;0.10;99.90;;;;;;5030443;28;20223;-87
2021/01/14 04:50:28;;;;;;;0.00;0.00;;;0.00;99.90;;;;;;5027803;28;20049;-87
2021/01/14 04:52:55;;;;;;;0.00;0.00;;;-0.10;99.90;;;;;;5010331;28;20044;-86
2021/01/14 04:55:25;;;;;;;0.00;0.00;;;-0.10;99.90;;;;;;5044542;28;20064;-87
2021/01/14 04:57:52;;;;;;;0.00;0.00;;;-0.20;99.90;;;;;;5028184;28;20097;-87
2021/01/14 05:00:20;;;;;;;0.00;0.00;;;-0.30;99.90;;;;;;5028397;28;20462;-87
2021/01/14 05:02:56;;;;;;;0.00;0.00;;;-0.30;99.90;;;;;;5028130;28;20105;-87
2021/01/14 05:05:23;;;;;;;0.00;0.00;;;-0.30;99.90;;;;;;5028453;28;20034;-87
2021/01/14 05:08:09;;;;;;;0.00;0.00;;;-0.30;99.90;;;;;;5028720;28;20055;-87
2021/01/14 05:10:37;;;;;;;0.00;0.00;;;-0.30;99.90;;;;;;5027762;28;20034;-86
2021/01/14 05:13:03;;;;;;;0.00;0.00;;;-0.30;99.90;;;;;;5031729;28;20060;-87
2021/01/14 05:15:29;;;;;;;0.00;0.00;;;-0.30;99.90;;;;;;5032078;28;20097;-87
2021/01/14 05:17:59;;;;;;;0.00;0.00;;;-0.20;99.90;;;;;;5031846;28;20079;-86
2021/01/14 05:20:26;;;;;;;0.00;0.00;;;-0.20;99.90;;;;;;5048312;28;20048;-87
2021/01/14 05:22:57;;;;;;;0.00;0.00;;;-0.20;99.90;;;;;;5032471;28;20038;-87
2021/01/14 05:25:23;;;;;;;0.00;0.00;;;-0.10;99.90;;;;;;5032283;28;20059;-87
2021/01/14 05:27:49;;;;;;;0.00;0.00;;;-0.10;99.90;;;;;;5031771;28;20025;-87
2021/01/14 05:30:15;;;;;;;0.00;0.00;;;-0.10;99.90;;;;;;5031893;28;20037;-86
2021/01/14 05:32:45;;;;;;;0.00;0.00;;;-0.10;99.90;;;;;;5040006;28;20029;-87
2021/01/14 05:35:13;;;;;;;0.00;0.00;;;0.00;99.90;;;;;;5039739;28;20032;-87
2021/01/14 05:37:43;;;;;;;0.00;0.00;;;0.10;99.90;;;;;;5046231;28;20072;-87
2021/01/14 05:40:23;;;;;;;0.00;0.00;;;0.20;99.90;;;;;;5031849;28;20091;-87
2021/01/14 05:43:06;;;;;;;0.00;0.00;;;0.20;99.90;;;;;;5031245;28;20099;-87
2021/01/14 05:46:12;;;;;;;0.00;0.00;;;0.30;99.90;;;;;;5027813;28;20056;-86
2021/01/14 05:48:39;;;;;;;0.00;0.00;;;0.30;99.90;;;;;;4971449;28;20043;-87
2021/01/14 05:51:24;;;;;;;0.00;0.00;;;0.30;99.90;;;;;;4956961;28;20039;-87
2021/01/14 05:53:53;;;;;;;0.00;0.00;;;0.30;99.90;;;;;;4957090;28;20041;-87
2021/01/14 05:56:27;;;;;;;0.00;0.00;;;0.20;99.90;;;;;;4956222;28;20035;-87
2021/01/14 05:58:54;;;;;;;0.00;0.00;;;0.20;99.90;;;;;;4972112;28;20097;-87
2021/01/14 06:01:23;;;;;;;0.00;0.00;;;0.20;99.90;;;;;;4966183;28;20325;-87
2021/01/14 06:03:49;;;;;;;0.00;0.00;;;0.20;99.90;;;;;;4960470;29;20068;-87
2021/01/14 06:06:16;;;;;;;0.00;0.00;;;0.20;99.90;;;;;;4952958;29;20054;-87
2021/01/14 06:08:43;;;;;;;0.00;0.00;;;0.20;99.90;;;;;;4956217;28;20083;-88
2021/01/14 06:11:22;;;;;;;0.00;0.00;;;0.20;99.90;;;;;;4963824;28;20082;-88
2021/01/14 06:13:49;;;;;;;0.00;0.00;;;0.00;99.90;;;;;;4972806;28;20035;-87
2021/01/14 06:16:15;;;;;;;0.00;0.00;;;0.00;99.90;;;;;;4972484;28;20054;-87
2021/01/14 06:19:08;;;;;;;0.00;0.00;;;0.10;99.90;;;;;;4971636;28;20127;-87
2021/01/14 06:22:01;;;;;;;0.00;0.00;;;0.20;99.90;;;;;;4955071;28;20109;-87
2021/01/14 06:24:35;;;;;;;0.00;0.00;;;0.00;99.90;;;;;;4976038;28;20041;-87
2021/01/14 06:27:04;;;;;;;0.00;0.00;;;0.00;99.90;;;;;;5031300;28;20095;-86
2021/01/14 06:29:31;;;;;;;0.00;0.00;;;0.00;99.90;;;;;;5030834;28;20034;-87
2021/01/14 06:32:18;;;;;;;0.00;0.00;;;-0.10;99.90;;;;;;5047466;28;20033;-86
2021/01/14 06:34:48;;;;;;;0.00;0.00;;;-0.10;99.90;;;;;;5031484;28;20056;-87
2021/01/14 06:37:20;;;;;;;0.00;0.00;;;-0.10;99.90;;;;;;5030933;28;20044;-87
2021/01/14 06:39:49;;;;;;;0.00;0.00;;;-0.10;99.90;;;;;;5047536;28;20038;-87
2021/01/14 06:42:37;;;;;;;0.00;0.00;;;-0.10;99.90;;;;;;5047560;28;20029;-87
2021/01/14 06:45:10;;;;;;;0.00;0.00;;;-0.20;99.90;;;;;;5031212;28;20065;-87
2021/01/14 06:47:46;;;;;;;0.00;0.00;;;-0.30;99.90;;;;;;5030694;28;20101;-87
2021/01/14 06:50:27;;;;;;;0.00;0.00;;;-0.20;99.90;;;;;;5028004;28;20037;-87
2021/01/14 06:53:01;;;;;;;0.00;0.00;;;-0.20;99.90;;;;;;5010990;28;20033;-87
2021/01/14 06:55:30;;;;;;;0.00;0.00;;;-0.20;99.90;;;;;;5028136;28;20050;-87
2021/01/14 06:58:11;;;;;;;0.00;0.00;;;-0.20;99.90;;;;;;5011176;28;20034;-87
2021/01/14 07:00:45;;;;;;;0.00;0.00;;;-0.30;99.90;;;;;;5011460;28;20041;-87
2021/01/14 07:03:18;;;;;;;0.00;0.00;;;-0.30;99.90;;;;;;5011115;28;20034;-87
2021/01/14 07:05:53;;;;;;;0.00;0.00;;;-0.30;99.90;;;;;;5011211;28;20044;-87
2021/01/14 07:08:30;;;;;;;0.00;0.00;;;-0.30;99.90;;;;;;5027146;28;20061;-87
2021/01/14 07:11:06;;;;;;;0.00;0.00;;;-0.30;99.90;;;;;;5010648;28;20053;-88
2021/01/14 07:13:44;;;;;;;0.00;0.00;;;-0.20;99.90;;;;;;5010357;28;20070;-87
2021/01/14 07:16:17;;;;;;;0.00;0.00;;;-0.30;99.90;;;;;;5026972;28;20026;-87
2021/01/14 07:18:44;;;;;;;0.00;0.00;;;-0.30;99.90;;;;;;5044364;28;20045;-87
2021/01/14 07:21:35;;;;;;;0.00;0.00;;;-0.30;99.90;;;;;;5010603;28;20030;-87
2021/01/14 07:24:24;;;;;;;0.00;0.00;;;-0.40;99.90;;;;;;5010783;28;20034;-87
2021/01/14 07:27:01;;;;;;;0.00;0.00;;;-0.40;99.90;;;;;;5027236;28;20041;-87
2021/01/14 07:29:27;;;;;;;0.00;0.00;;;-0.40;99.90;;;;;;5011014;28;20023;-87
2021/01/14 07:31:58;;;;;;;0.00;0.00;;;-0.40;99.90;;;;;;5030139;28;20072;-87
2021/01/14 07:34:46;;;;;;;0.00;0.00;;;-0.40;99.90;;;;;;5011542;28;20094;-87
2021/01/14 07:37:13;;;;;;;0.00;0.00;;;-0.40;99.90;;;;;;5029342;28;20036;-86
2021/01/14 07:39:59;;;;;;;0.00;0.00;;;-0.40;99.90;;;;;;5029825;28;20041;-87
2021/01/14 07:42:26;;;;;;;0.00;0.00;;;-0.40;99.90;;;;;;5014340;28;20032;-86
2021/01/14 07:44:57;;;;;;;0.00;0.00;;;-0.40;99.90;;;;;;5011970;28;20058;-87
2021/01/14 07:47:35;;;;;;;0.00;0.00;;;-0.40;99.90;;;;;;5035984;28;20033;-87
2021/01/14 07:50:18;;;;;;;0.75;0.75;;;-0.40;99.90;;;;;;5028637;28;20034;-87
2021/01/14 07:52:45;;;;;;;0.00;0.00;;;-0.40;99.90;;;;;;5029340;28;20034;-87
2021/01/14 07:55:11;;;;;;;0.00;0.00;;;-0.40;99.90;;;;;;5013269;28;20029;-87
2021/01/14 07:57:59;;;;;;;0.00;0.00;;;-0.30;99.90;;;;;;5010938;28;20033;-87
2021/01/14 08:00:26;;;;;;;0.00;0.00;;;-0.40;99.90;;;;;;5026687;28;20033;-87
2021/01/14 08:03:12;;;;;;;0.00;0.00;;;-0.30;99.90;;;;;;5011388;28;20030;-88
2021/01/14 08:05:57;;;;;;;0.00;0.00;;;-0.30;99.90;;;;;;5011896;28;20042;-87
2021/01/14 08:08:24;;;;;;;0.00;0.00;;;-0.30;99.90;;;;;;5011193;28;20033;-87
2021/01/14 08:11:19;;;;;;;0.00;0.00;;;-0.30;99.90;;;;;;5010663;28;20093;-87
2021/01/14 08:14:09;;;;;;;0.00;0.00;;;-0.20;99.90;;;;;;5009835;28;20393;-87
2021/01/14 08:16:43;;;;;;;0.00;0.00;;;-0.20;99.90;;;;;;5025873;28;20033;-87
2021/01/14 08:19:10;;;;;;;0.00;0.00;;;-0.20;99.90;;;;;;5011010;28;20112;-87
2021/01/14 08:21:36;;;;;;;0.00;0.00;;;-0.10;99.90;;;;;;5009214;28;20026;-87
2021/01/14 08:24:01;;;;;;;0.00;0.00;;;-0.10;99.90;;;;;;5024962;28;20045;-88
2021/01/14 08:26:27;;;;;;;0.00;0.00;;;-0.10;99.90;;;;;;5008835;28;20094;-87
2021/01/14 08:29:00;;;;;;;0.00;0.00;;;0.00;99.90;;;;;;5009076;28;20037;-88
2021/01/14 08:31:37;;;;;;;0.00;0.00;;;0.10;99.90;;;;;;5026159;28;20053;-87
2021/01/14 08:34:05;;;;;;;0.00;0.00;;;0.10;99.90;;;;;;4992864;28;20045;-87
2021/01/14 08:36:40;;;;;;;0.00;0.00;;;0.20;99.90;;;;;;5009084;28;20025;-87
2021/01/14 08:39:09;;;;;;;0.00;0.00;;;0.20;99.90;;;;;;5025305;28;20038;-87
2021/01/14 08:41:37;;;;;;;0.00;0.00;;;0.20;99.90;;;;;;5008879;28;20041;-87
2021/01/14 08:44:04;;;;;;;0.00;0.00;;;0.30;99.90;;;;;;5009285;28;20080;-87
2021/01/14 08:46:46;;;;;;;0.00;0.00;;;0.30;99.90;;;;;;5011087;28;20065;-87
2021/01/14 08:49:14;;;;;;;0.00;0.00;;;0.30;99.90;;;;;;5029076;28;20109;-88
2021/01/14 08:51:40;;;;;;;0.00;0.00;;;0.40;99.90;;;;;;5045496;28;20041;-87
2021/01/14 08:54:07;;;;;;;0.00;0.00;;;0.40;99.90;;;;;;5029546;28;20034;-86
2021/01/14 08:56:33;;;;;;;0.00;0.00;;;0.40;99.90;;;;;;5028811;28;20069;-87
2021/01/14 08:59:09;;;;;;;0.00;0.00;;;0.40;99.90;;;;;;5029174;28;20046;-87
2021/01/14 09:01:35;;;;;;;0.00;0.00;;;0.40;99.90;;;;;;5029337;28;20030;-87
2021/01/14 09:04:00;;;;;;;0.00;0.00;;;0.50;99.90;;;;;;5029505;28;20080;-87
2021/01/14 09:06:39;;;;;;;0.00;0.00;;;0.50;99.90;;;;;;5028903;28;20037;-87
2021/01/14 09:09:09;;;;;;;0.00;0.00;;;0.50;99.90;;;;;;5028654;28;20108;-89
2021/01/14 09:11:36;;;;;;;0.00;0.00;;;0.50;99.90;;;;;;5028755;28;20038;-87
2021/01/14 09:14:11;;;;;;;0.00;0.00;;;0.60;99.90;;;;;;5028864;28;20030;-87
2021/01/14 09:16:38;;;;;;;0.00;0.00;;;0.60;99.90;;;;;;5012059;28;20030;-87
2021/01/14 09:19:20;;;;;;;0.00;0.00;;;0.60;99.90;;;;;;5044934;28;20109;-87
2021/01/14 09:21:46;;;;;;;0.00;0.00;;;0.60;99.90;;;;;;5028338;28;20485;-87
2021/01/14 09:24:14;;;;;;;0.00;0.00;;;0.70;99.90;;;;;;5028187;28;20228;-87
2021/01/14 09:26:41;;;;;;;0.00;0.00;;;0.70;99.90;;;;;;5027917;28;20057;-88
2021/01/14 09:29:11;;;;;;;0.00;0.00;;;0.70;99.90;;;;;;5028140;28;20061;-88
2021/01/14 09:31:37;;;;;;;0.00;0.00;;;0.70;99.90;;;;;;5028078;28;20421;-87
2021/01/14 09:34:03;;;;;;;0.00;0.00;;;0.80;99.90;;;;;;5029387;28;20029;-87
2021/01/14 09:36:29;;;;;;;0.00;0.00;;;0.80;99.90;;;;;;5027777;28;20034;-87
2021/01/14 09:38:57;;;;;;;0.00;0.00;;;0.80;99.90;;;;;;5027911;28;20105;-87
2021/01/14 09:41:37;;;;;;;0.00;0.00;;;0.90;99.90;;;;;;5027566;28;20040;-87
2021/01/14 09:44:08;;;;;;;0.00;0.00;;;0.90;99.90;;;;;;5027718;28;20052;-87
2021/01/14 09:46:38;;;;;;;0.00;0.00;;;1.00;99.90;;;;;;5029450;28;20052;-87
2021/01/14 09:49:09;;;;;;;0.00;0.00;;;1.00;99.90;;;;;;5030654;28;20116;-86
2021/01/14 09:51:36;;;;;;;0.00;0.00;;;1.00;99.90;;;;;;5030821;28;20030;-87
2021/01/14 09:54:06;;;;;;;0.00;0.00;;;1.10;99.90;;;;;;5030935;28;20408;-87
2021/01/14 09:56:37;;;;;;;;;;;1.20;99.90;;;;;;5031045;28;20045;-87
2021/01/14 09:59:24;;;;;;;0.00;0.00;;;1.30;99.90;;;;;;5046017;28;19964;-87
2021/01/14 10:02:00;;;;;;;0.00;0.00;;;1.30;99.90;;;;;;5046979;28;20083;-87
2021/01/14 10:04:27;;;;;;;0.00;0.00;;;1.30;99.90;;;;;;5047000;28;20064;-89
2021/01/14 10:07:01;;;;;;;0.00;0.00;;;1.40;99.90;;;;;;5030496;28;20120;-87
2021/01/14 10:09:27;;;;;;;0.00;0.00;;;1.50;99.90;;;;;;5031928;28;20039;-86
2021/01/14 10:11:54;;;;;;;0.00;0.00;;;1.40;99.90;;;;;;5046943;28;20053;-87
2021/01/14 10:14:21;;;;;;;0.00;0.00;;;1.30;99.90;;;;;;5030356;28;20036;-87
2021/01/14 10:16:48;;;;;;;0.00;0.00;;;1.30;99.90;;;;;;5046409;28;20052;-87
2021/01/14 10:19:19;;;;;;;0.00;0.00;;;1.30;99.90;;;;;;5029870;28;20072;-87
2021/01/14 10:21:46;;;;;;;0.00;0.00;;;1.30;99.90;;;;;;5046645;28;20121;-87
2021/01/14 10:24:25;;;;;;;0.00;0.00;;;1.30;99.90;;;;;;5030125;28;20060;-87
2021/01/14 10:26:52;;;;;;;0.00;0.00;;;1.30;99.90;;;;;;5029952;28;20034;-87
2021/01/14 10:29:45;;;;;;;0.00;0.00;;;1.30;99.90;;;;;;5029975;28;20045;-88
2021/01/14 10:32:37;;;;;;;0.00;0.00;;;1.40;99.90;;;;;;5027170;28;20033;-87
2021/01/14 10:35:03;;;;;;;0.00;0.00;;;1.40;99.90;;;;;;5043548;28;20120;-87
2021/01/14 10:37:31;;;;;;;0.00;0.00;;;1.40;99.90;;;;;;5029860;28;20029;-88
2021/01/14 10:39:57;;;;;;;0.00;0.00;;;1.40;99.90;;;;;;5029985;28;20041;-87
2021/01/14 10:42:27;;;;;;;0.00;0.00;;;1.40;99.90;;;;;;5046381;28;20129;-87
2021/01/14 10:44:54;;;;;;;0.00;0.00;;;1.40;99.90;;;;;;5032485;28;20029;-87
2021/01/14 10:47:21;;;;;;;0.00;0.00;;;1.40;99.90;;;;;;5032970;28;20033;-87
2021/01/14 10:49:47;;;;;;;0.00;0.00;;;1.50;99.90;;;;;;5033231;28;20078;-87
2021/01/14 10:52:12;;;;;;;0.00;0.00;;;1.50;99.90;;;;;;5032779;28;20045;-87
2021/01/14 10:54:38;;;;;;;0.00;0.00;;;1.60;99.90;;;;;;5032880;28;20065;-87
2021/01/14 10:57:04;;;;;;;0.00;0.00;;;1.80;99.90;;;;;;5032628;28;20115;-87
2021/01/14 10:59:31;;;;;;;0.00;0.00;;;1.90;99.90;;;;;;5032603;28;20041;-88
2021/01/14 11:02:09;;;;;;;0.00;0.00;;;1.90;99.90;;;;;;5032453;28;20115;-87
2021/01/14 11:04:35;;;;;;;0.00;0.00;;;2.00;99.90;;;;;;5031694;28;20130;-87
2021/01/14 11:07:12;;;;;;;0.00;0.00;;;2.10;99.90;;;;;;5020414;28;20056;-88
2021/01/14 11:09:51;;;;;;;0.00;0.00;;;2.10;99.90;;;;;;5048772;28;20063;-87
2021/01/14 11:12:21;;;;;;;0.00;0.00;;;2.20;99.90;;;;;;5048868;28;20037;-87
2021/01/14 11:14:48;;;;;;;0.00;0.00;;;2.30;99.90;;;;;;5032691;28;20095;-88
2021/01/14 11:17:13;;;;;;;0.00;0.00;;;2.40;99.90;;;;;;5031530;28;20501;-87
2021/01/14 11:19:39;;;;;;;0.00;0.00;;;2.40;99.90;;;;;;5032335;28;20045;-88
2021/01/14 11:22:05;;;;;;;0.00;0.00;;;2.50;99.90;;;;;;5048610;28;20029;-89
2021/01/14 11:24:30;;;;;;;0.00;0.00;;;2.40;99.90;;;;;;5048988;28;20108;-88
2021/01/14 11:26:56;;;;;;;0.00;0.00;;;2.40;99.90;;;;;;5032052;28;20048;-88
2021/01/14 11:29:21;;;;;;;0.00;0.00;;;2.40;99.90;;;;;;5048873;28;20033;-88
2021/01/14 11:31:47;;;;;;;0.00;0.00;;;2.30;99.90;;;;;;5031933;28;20020;-90
2021/01/14 11:34:12;;;;;;;0.00;0.00;;;2.30;99.90;;;;;;5031974;28;20461;-88
2021/01/14 11:36:38;;;;;;;0.00;0.00;;;2.30;99.90;;;;;;5027688;28;20081;-89
2021/01/14 11:39:05;;;;;;;0.00;0.00;;;2.20;99.90;;;;;;5062297;28;20097;-87
2021/01/14 11:41:30;;;;;;;0.00;0.00;;;2.20;99.90;;;;;;5031924;28;20029;-87
2021/01/14 11:43:56;;;;;;;0.00;0.00;;;2.20;99.90;;;;;;5031686;28;20035;-88
2021/01/14 11:46:24;;;;;;;0.00;0.00;;;2.20;99.90;;;;;;5031344;28;20068;-87
2021/01/14 11:48:51;;;;;;;0.00;0.00;;;2.20;99.90;;;;;;5030395;28;20033;-87
2021/01/14 11:51:16;;;;;;;0.00;0.00;;;2.20;99.90;;;;;;5009609;28;20049;-88
2021/01/14 11:53:42;;;;;;;0.00;0.00;;;2.10;99.90;;;;;;5013204;28;20079;-87
2021/01/14 11:56:18;;;;;;;0.00;0.00;;;2.00;99.90;;;;;;5026468;28;20033;-86
2021/01/14 11:58:45;;;;;;;0.00;0.00;;;2.00;99.90;;;;;;5043767;28;20049;-90
2021/01/14 12:01:10;;;;;;;0.00;0.00;;;2.00;99.90;;;;;;5008499;28;20120;-89
2021/01/14 12:03:36;;;;;;;0.00;0.00;;;2.10;99.90;;;;;;5027977;28;20053;-84
2021/01/14 12:06:02;;;;;;;0.00;0.00;;;2.20;99.90;;;;;;5015706;28;20026;-85
2021/01/14 12:08:27;;;;;;;0.00;0.00;;;2.40;99.90;;;;;;5029588;28;20037;-84
2021/01/14 12:10:53;;;;;;;0.00;0.00;;;2.50;99.90;;;;;;5027684;28;20029;-85
2021/01/14 12:13:19;;;;;;;0.00;0.00;;;2.50;99.90;;;;;;5011413;28;20025;-88
2021/01/14 12:15:44;;;;;;;0.00;0.00;;;2.50;99.90;;;;;;5026690;28;20025;-87
2021/01/14 12:18:10;;;;;;;0.00;0.00;;;2.50;99.90;;;;;;5014204;28;20261;-88
2021/01/14 12:20:35;;;;;;;0.00;0.00;;;2.50;99.90;;;;;;5026928;28;20033;-84
2021/01/14 12:23:01;;;;;;;0.00;0.00;;;2.40;99.90;;;;;;5026860;28;20064;-89
2021/01/14 12:25:26;;;;;;;0.00;0.00;;;2.30;99.90;;;;;;5012476;28;20033;-88
2021/01/14 12:27:52;;;;;;;0.00;0.00;;;2.30;99.90;;;;;;5031143;28;20025;-91
2021/01/14 12:30:19;;;;;;;0.00;0.00;;;2.30;99.90;;;;;;5025271;28;20029;-93
2021/01/14 12:32:44;;;;;;;0.00;0.00;;;2.30;99.90;;;;;;5026061;28;20030;-89
2021/01/14 12:35:12;;;;;;;0.00;0.00;;;2.20;99.90;;;;;;5013229;28;20040;-84
2021/01/14 12:37:39;;;;;;;0.00;0.00;;;2.20;99.90;;;;;;5026310;28;20029;-84
2021/01/14 12:40:07;;;;;;;0.00;0.00;;;2.10;99.90;;;;;;5026637;28;20124;-87
2021/01/14 12:42:33;;;;;;;0.00;0.00;;;2.20;99.90;;;;;;5043132;28;20104;-83
2021/01/14 12:44:59;;;;;;;0.00;0.00;;;2.20;99.90;;;;;;5043839;28;20037;-85
2021/01/14 12:47:25;;;;;;;0.00;0.00;;;2.20;99.90;;;;;;5030591;28;20034;-86
2021/01/14 12:49:53;;;;;;;0.00;0.00;;;2.30;99.90;;;;;;5009503;28;20502;-83
2021/01/14 12:52:18;;;;;;;0.00;0.00;;;2.40;99.90;;;;;;5039952;28;20279;-83
2021/01/14 12:54:44;;;;;;;0.00;0.00;;;2.50;99.90;;;;;;5044970;28;20619;-82
2021/01/14 12:57:09;;;;;;;0.00;0.00;;;2.50;99.90;;;;;;5029544;28;20033;-82
2021/01/14 12:59:35;;;;;;;0.00;0.00;;;2.60;99.90;;;;;;5032186;28;20033;-83
2021/01/14 13:02:05;;;;;;;0.00;0.00;;;2.60;99.90;;;;;;5029112;28;20037;-83
2021/01/14 13:04:30;;;;;;;0.00;0.00;;;2.60;99.90;;;;;;5031091;28;20082;-84
2021/01/14 13:06:56;;;;;;;0.00;0.00;;;2.60;99.90;;;;;;5045656;28;20111;-83
2021/01/14 13:09:22;;;;;;;0.00;0.00;;;2.60;99.90;;;;;;5029269;28;20029;-84
2021/01/14 13:11:53;;;;;;;0.00;0.00;;;2.60;99.90;;;;;;5045288;28;20032;-83